Time;durP1;ratioP1;P1;durP2;ratioP2;P2;SDS_P1;SDS_P2;PMS_P1;PMS_P2;Temp;Humidity;BMP_temperature;BMP_pressure;BME280_temperature;BME280_humidity;BME280_pressure;Samples;Min_cycle;Max_cycle;Signal;HPM_P1;HPM_P2
2020/12/09 00:00:51;;;;;;;48.25;20.10;;;;;;;;;;6270500;22;20042;-74
2020/12/09 00:03:18;;;;;;;42.60;20.88;;;10.20;59.50;;;;;;6271645;22;20012;-73
2020/12/09 00:05:44;;;;;;;47.58;20.88;;;;;;;;;;6273749;22;20018;-75
2020/12/09 00:08:10;;;;;;;43.60;18.95;;;;;;;;;;6275398;22;20011;-74
2020/12/09 00:10:37;;;;;;;42.33;20.20;;;;;;;;;;6274307;22;20012;-75
2020/12/09 00:13:03;;;;;;;47.50;20.23;;;;;;;;;;6246585;22;20012;-75
2020/12/09 00:15:29;;;;;;;41.92;19.63;;;;;;;;;;6275636;22;20008;-75
2020/12/09 00:17:55;;;;;;;46.67;21.27;;;;;;;;;;6275998;22;20053;-75
2020/12/09 00:20:22;;;;;;;42.35;20.27;;;;;;;;;;6281567;22;20008;-73
2020/12/09 00:22:48;;;;;;;43.15;19.25;;;;;;;;;;6285484;22;20432;-74
2020/12/09 00:25:14;;;;;;;42.97;19.80;;;;;;;;;;6276179;22;20006;-74
2020/12/09 00:27:40;;;;;;;42.70;20.30;;;;;;;;;;6275822;22;20425;-73
2020/12/09 00:30:08;;;;;;;41.47;20.02;;;10.30;59.20;;;;;;6249127;22;20082;-74
2020/12/09 00:32:35;;;;;;;43.45;19.63;;;10.20;59.20;;;;;;6275383;22;20007;-74
2020/12/09 00:35:01;;;;;;;40.90;20.38;;;;;;;;;;6275611;22;20008;-75
2020/12/09 00:37:27;;;;;;;42.67;19.55;;;;;;;;;;6248906;22;20019;-74
2020/12/09 00:39:53;;;;;;;40.08;20.48;;;;;;;;;;6275864;22;20023;-73
2020/12/09 00:42:20;;;;;;;40.40;20.10;;;;;;;;;;6275770;22;20008;-74
2020/12/09 00:44:46;;;;;;;42.70;20.40;;;;;;;;;;6275743;22;20012;-72
2020/12/09 00:47:12;;;;;;;39.22;19.63;;;;;;;;;;6275801;22;20066;-74
2020/12/09 00:52:25;;;;;;;39.65;18.65;;;10.30;58.80;;;;;;6248463;22;20023;-73
2020/12/09 00:54:51;;;;;;;39.47;18.35;;;;;;;;;;6248609;22;20010;-73
2020/12/09 00:57:23;;;;;;;43.15;20.02;;;10.30;59.10;;;;;;6248577;22;20431;-74
2020/12/09 00:59:49;;;;;;;49.47;19.88;;;;;;;;;;6275713;22;20007;-72
2020/12/09 01:02:19;;;;;;;38.72;19.10;;;;;;;;;;6248577;22;20003;-74
2020/12/09 01:04:52;;;;;;;41.70;19.52;;;;;;;;;;6248066;22;20011;-74
2020/12/09 01:07:18;;;;;;;45.03;19.98;;;10.40;59.00;;;;;;6275204;22;20095;-74
2020/12/09 01:09:45;;;;;;;38.95;19.35;;;10.30;58.90;;;;;;6275164;22;20397;-74
2020/12/09 01:12:12;;;;;;;38.33;18.63;;;;;;;;;;6275688;22;20018;-73
2020/12/09 01:14:38;;;;;;;42.83;18.60;;;;;;;;;;6275079;22;20111;-75
2020/12/09 01:17:05;;;;;;;40.22;19.42;;;;;;;;;;6275092;22;20084;-75
2020/12/09 01:19:31;;;;;;;37.55;18.92;;;;;;;;;;6275554;22;20008;-74
2020/12/09 01:21:57;;;;;;;44.85;20.77;;;;;;;;;;6275516;22;20022;-74
2020/12/09 01:24:23;;;;;;;42.08;20.60;;;;;;;;;;6274919;22;20380;-75
2020/12/09 01:26:50;;;;;;;42.63;19.90;;;10.20;59.10;;;;;;6275091;22;20396;-73
2020/12/09 01:29:17;;;;;;;41.70;19.33;;;;;;;;;;6275588;22;20015;-75
2020/12/09 01:31:43;;;;;;;49.30;19.02;;;;;;;;;;6275407;22;20016;-72
2020/12/09 01:34:09;;;;;;;42.80;18.63;;;;;;;;;;6275065;22;20333;-72
2020/12/09 01:36:35;;;;;;;37.30;17.80;;;;;;;;;;6275019;22;20037;-73
2020/12/09 01:39:01;;;;;;;37.55;18.15;;;;;;;;;;6275261;22;20012;-73
2020/12/09 01:41:28;;;;;;;39.33;19.10;;;;;;;;;;6275753;22;20003;-73
2020/12/09 01:43:54;;;;;;;42.95;20.08;;;;;;;;;;6274923;22;20004;-72
2020/12/09 01:46:31;;;;;;;36.58;18.85;;;9.90;59.10;;;;;;6220786;22;20007;-73
2020/12/09 01:48:59;;;;;;;46.95;19.15;;;9.80;59.20;;;;;;6275094;22;20007;-73
2020/12/09 01:51:26;;;;;;;44.58;20.23;;;9.70;59.20;;;;;;6274808;22;20012;-73
2020/12/09 01:53:53;;;;;;;50.17;20.67;;;9.80;59.30;;;;;;6275103;22;19999;-72
2020/12/09 01:56:20;;;;;;;43.38;20.50;;;;;;;;;;6275079;22;20095;-72
2020/12/09 01:58:49;;;;;;;46.13;20.40;;;9.70;59.20;;;;;;6274859;22;20011;-74
2020/12/09 02:01:15;;;;;;;43.75;19.30;;;;;;;;;;6274544;22;20333;-73
2020/12/09 02:03:41;;;;;;;48.45;19.88;;;;;;;;;;6275139;22;20007;-74
2020/12/09 02:06:08;;;;;;;45.80;22.30;;;;;;;;;;6247177;22;20020;-72
2020/12/09 02:08:34;;;;;;;49.55;20.33;;;;;;;;;;6274798;22;20087;-74
2020/12/09 02:11:01;;;;;;;37.75;19.58;;;9.60;58.90;;;;;;6274945;22;20011;-75
2020/12/09 02:13:27;;;;;;;;;;;9.50;59.30;;;;;;6275409;22;20014;-74
2020/12/09 02:15:54;;;;;;;46.10;20.00;;;;;;;;;;6274892;22;19903;-73
2020/12/09 02:18:20;;;;;;;51.75;21.02;;;;;;;;;;6274930;22;20007;-73
2020/12/09 02:20:46;;;;;;;53.25;23.58;;;;;;;;;;6274984;22;20011;-74
2020/12/09 02:23:13;;;;;;;53.88;20.98;;;;;;;;;;6274441;22;20091;-73
2020/12/09 02:25:40;;;;;;;45.53;21.30;;;9.30;58.50;;;;;;6247278;22;20007;-74
2020/12/09 02:28:05;;;;;;;;;;;9.20;58.90;;;;;;6276113;22;20004;-74
2020/12/09 02:30:32;;;;;;;44.03;21.35;;;;;;;;;;6274412;22;19909;-74
2020/12/09 02:32:58;;;;;;;44.50;20.23;;;;;;;;;;6274372;22;20026;-73
2020/12/09 02:35:24;;;;;;;46.97;22.58;;;;;;;;;;6274153;22;20337;-74
2020/12/09 02:37:53;;;;;;;46.25;21.60;;;;;;;;;;6247361;22;20031;-73
2020/12/09 02:40:22;;;;;;;48.95;21.00;;;9.00;58.50;;;;;;6274337;22;20026;-74
2020/12/09 02:42:49;;;;;;;43.08;20.70;;;;;;;;;;6274696;22;20415;-74
2020/12/09 02:45:15;;;;;;;48.20;22.50;;;9.00;58.40;;;;;;6274259;22;20046;-74
2020/12/09 02:47:41;;;;;;;46.00;20.50;;;;;;;;;;6247216;22;20093;-74
2020/12/09 02:50:08;;;;;;;46.83;21.38;;;;;;;;;;6247242;22;20004;-72
2020/12/09 02:52:34;;;;;;;55.33;22.45;;;;;;;;;;6280262;22;20027;-73
2020/12/09 02:55:00;;;;;;;51.38;23.02;;;;;;;;;;6284396;22;20011;-74
2020/12/09 02:57:27;;;;;;;46.90;21.13;;;;;;;;;;6274602;22;20444;-74
2020/12/09 02:59:53;;;;;;;44.67;20.70;;;;;;;;;;6274211;22;20028;-74
2020/12/09 03:02:19;;;;;;;40.38;20.70;;;;;;;;;;6274642;22;20043;-75
2020/12/09 03:04:46;;;;;;;49.28;21.40;;;;;;;;;;6274106;22;20023;-74
2020/12/09 03:07:12;;;;;;;51.65;21.65;;;;;;;;;;6274154;22;20019;-75
2020/12/09 03:09:38;;;;;;;41.90;20.33;;;;;;;;;;6247082;22;20463;-72
2020/12/09 03:12:04;;;;;;;50.88;21.60;;;;;;;;;;6274977;22;20094;-74
2020/12/09 03:14:31;;;;;;;51.97;21.90;;;;;;;;;;6274739;22;20011;-74
2020/12/09 03:16:57;;;;;;;47.40;20.65;;;;;;;;;;6247217;22;20313;-74
2020/12/09 03:19:23;;;;;;;47.35;20.92;;;;;;;;;;6247123;22;20015;-74
2020/12/09 03:21:49;;;;;;;46.20;21.27;;;;;;;;;;6274084;22;20015;-73
2020/12/09 03:24:15;;;;;;;41.03;19.50;;;;;;;;;;6274358;22;20007;-74
2020/12/09 03:26:42;;;;;;;50.88;21.40;;;;;;;;;;6247004;22;20153;-73
2020/12/09 03:29:08;;;;;;;44.15;20.27;;;;;;;;;;6274161;22;20440;-73
2020/12/09 03:31:34;;;;;;;47.65;21.25;;;;;;;;;;6247268;22;20023;-74
2020/12/09 03:34:00;;;;;;;47.85;21.42;;;;;;;;;;6274039;22;20011;-73
2020/12/09 03:36:27;;;;;;;60.97;21.70;;;;;;;;;;6274027;22;20360;-73
2020/12/09 03:38:53;;;;;;;65.80;25.63;;;;;;;;;;6274328;22;20008;-75
2020/12/09 03:41:19;;;;;;;78.95;24.95;;;;;;;;;;6274043;22;20010;-73
2020/12/09 03:43:45;;;;;;;78.35;25.33;;;;;;;;;;6247415;22;20074;-73
2020/12/09 03:46:11;;;;;;;68.57;24.08;;;;;;;;;;6274017;22;20448;-74
2020/12/09 03:48:38;;;;;;;72.30;20.88;;;;;;;;;;6274625;22;20436;-73
2020/12/09 03:51:04;;;;;;;70.38;22.30;;;;;;;;;;6275478;22;20004;-74
2020/12/09 03:53:32;;;;;;;183.88;25.90;;;;;;;;;;6248903;22;20011;-74
2020/12/09 03:55:59;;;;;;;106.90;22.60;;;7.40;60.80;;;;;;6275849;22;20060;-74
2020/12/09 03:58:25;;;;;;;160.70;22.20;;;;;;;;;;6276193;22;20004;-74
2020/12/09 04:00:51;;;;;;;188.48;21.55;;;;;;;;;;6275821;22;20420;-74
2020/12/09 04:03:18;;;;;;;137.93;20.95;;;;;;;;;;6276225;22;20008;-73
2020/12/09 04:05:44;;;;;;;131.98;20.92;;;;;;;;;;6273752;22;20460;-74
2020/12/09 04:08:10;;;;;;;137.43;20.83;;;;;;;;;;6276003;22;20003;-74
2020/12/09 04:10:36;;;;;;;192.95;25.25;;;;;;;;;;6276138;22;20008;-74
2020/12/09 04:13:03;;;;;;;210.65;22.35;;;;;;;;;;6275939;22;20020;-74
2020/12/09 04:15:29;;;;;;;144.60;22.15;;;;;;;;;;6275972;22;20007;-72
2020/12/09 04:17:55;;;;;;;225.65;24.48;;;;;;;;;;6275956;22;20012;-74
2020/12/09 04:20:21;;;;;;;100.22;18.63;;;;;;;;;;6275744;22;20762;-73
2020/12/09 04:22:47;;;;;;;225.63;26.17;;;;;;;;;;6275899;22;20019;-75
2020/12/09 04:25:14;;;;;;;287.40;27.58;;;;;;;;;;6275961;22;20030;-73
2020/12/09 04:27:40;;;;;;;131.65;20.20;;;;;;;;;;6275768;22;20004;-74
2020/12/09 04:30:06;;;;;;;65.60;20.02;;;;;;;;;;6275649;22;20080;-74
2020/12/09 04:32:32;;;;;;;318.75;32.85;;;;;;;;;;6275870;22;20131;-75
2020/12/09 04:34:59;;;;;;;170.02;24.35;;;;;;;;;;6275485;22;20024;-75
2020/12/09 04:37:27;;;;;;;174.00;22.13;;;6.10;64.40;;;;;;6275994;22;20011;-75
2020/12/09 04:39:57;;;;;;;166.52;24.30;;;6.00;64.60;;;;;;6275709;22;20027;-74
2020/12/09 04:42:24;;;;;;;165.25;24.45;;;6.10;64.30;;;;;;6274064;22;20333;-74
2020/12/09 04:44:51;;;;;;;106.03;21.65;;;;;;;;;;6275858;22;20015;-74
2020/12/09 04:47:22;;;;;;;206.63;27.88;;;6.00;64.50;;;;;;6276244;22;20428;-74
2020/12/09 04:49:49;;;;;;;250.60;29.77;;;;;;;;;;6248469;22;20012;-74
2020/12/09 04:52:44;;;;;;;157.50;23.30;;;5.90;64.00;;;;;;6275729;22;20085;-74
2020/12/09 04:55:12;;;;;;;278.15;31.38;;;5.80;64.80;;;;;;6275749;22;19999;-73
2020/12/09 04:57:38;;;;;;;169.60;26.45;;;;;;;;;;6275166;22;20309;-73
2020/12/09 05:00:07;;;;;;;185.55;26.48;;;6.00;64.10;;;;;;6275374;22;20003;-75
2020/12/09 05:02:54;;;;;;;234.95;28.45;;;6.20;63.70;;;;;;6275449;22;20007;-74
2020/12/09 05:05:24;;;;;;;194.38;31.88;;;6.20;63.80;;;;;;6274841;22;20432;-74
2020/12/09 05:07:51;;;;;;;219.70;31.65;;;6.20;63.60;;;;;;6274828;22;20019;-74
2020/12/09 05:10:23;;;;;;;180.98;27.48;;;6.30;63.60;;;;;;6275459;22;20019;-74
2020/12/09 05:12:51;;;;;;;171.75;27.02;;;6.30;63.50;;;;;;6275405;22;20015;-73
2020/12/09 05:15:20;;;;;;;159.15;24.50;;;6.40;63.30;;;;;;6275202;22;20004;-75
2020/12/09 05:18:09;;;;;;;119.80;24.65;;;6.40;63.10;;;;;;6275534;22;20003;-73
2020/12/09 05:20:38;;;;;;;205.10;29.23;;;6.50;63.10;;;;;;6277778;22;19999;-74
2020/12/09 05:23:10;;;;;;;136.98;26.30;;;6.30;63.50;;;;;;6287122;22;19999;-74
2020/12/09 05:25:38;;;;;;;187.98;27.42;;;6.40;63.40;;;;;;6275649;22;20311;-74
2020/12/09 05:28:05;;;;;;;156.32;29.95;;;6.30;63.40;;;;;;6275088;22;20011;-73
2020/12/09 05:30:48;;;;;;;123.05;26.73;;;6.30;63.40;;;;;;6275481;22;19999;-74
2020/12/09 05:33:18;;;;;;;120.32;24.67;;;6.10;63.50;;;;;;6275542;22;20019;-75
2020/12/09 05:36:04;;;;;;;170.90;28.48;;;6.10;63.30;;;;;;6248636;22;20079;-75
2020/12/09 05:38:31;;;;;;;124.00;26.00;;;;;;;;;;6274246;22;20098;-75
2020/12/09 05:40:58;;;;;;;178.20;26.60;;;;;;;;;;6275256;22;20039;-74
2020/12/09 05:43:24;;;;;;;127.03;24.35;;;;;;;;;;6274642;22;20436;-74
2020/12/09 05:45:50;;;;;;;130.13;24.98;;;;;;;;;;6275153;22;20004;-74
2020/12/09 05:48:25;;;;;;;181.43;24.73;;;6.20;62.40;;;;;;6275160;22;20015;-75
2020/12/09 05:50:59;;;;;;;201.57;28.50;;;6.20;62.50;;;;;;6274871;22;19999;-75
2020/12/09 05:53:32;;;;;;;73.20;20.33;;;6.10;62.50;;;;;;6274426;22;20092;-75
2020/12/09 05:56:11;;;;;;;123.22;25.95;;;5.70;63.20;;;;;;6274871;22;20011;-75
2020/12/09 05:58:45;;;;;;;107.43;25.40;;;5.50;63.90;;;;;;6274886;22;20015;-75
2020/12/09 06:01:11;;;;;;;79.97;22.17;;;;;;;;;;6274743;22;20030;-74
2020/12/09 06:03:40;;;;;;;202.27;27.15;;;5.60;63.20;;;;;;6274759;22;20026;-73
2020/12/09 06:06:16;;;;;;;184.07;26.17;;;5.60;63.30;;;;;;6273709;22;20019;-75
2020/12/09 06:08:45;;;;;;;113.60;20.42;;;5.40;63.40;;;;;;6274815;22;20011;-74
2020/12/09 06:11:12;;;;;;;184.82;27.73;;;5.30;64.10;;;;;;6274323;22;20310;-74
2020/12/09 06:13:39;;;;;;;133.18;24.13;;;;;;;;;;6275011;22;20011;-74
2020/12/09 06:16:07;;;;;;;180.63;28.95;;;5.60;63.20;;;;;;6274876;22;20007;-73
2020/12/09 06:18:35;;;;;;;89.93;24.23;;;5.80;62.90;;;;;;6279256;22;20019;-73
2020/12/09 06:21:01;;;;;;;152.32;23.27;;;;;;;;;;6248649;22;20154;-74
2020/12/09 06:23:28;;;;;;;150.18;21.63;;;5.50;62.30;;;;;;6274493;22;20004;-74
2020/12/09 06:25:56;;;;;;;218.13;29.42;;;5.00;64.00;;;;;;6274128;22;20324;-74
2020/12/09 06:28:24;;;;;;;149.57;22.83;;;4.60;65.20;;;;;;6274340;22;20015;-72
2020/12/09 06:30:51;;;;;;;197.20;28.05;;;4.80;65.30;;;;;;6273887;22;20007;-74
2020/12/09 06:33:39;;;;;;;187.65;27.58;;;5.00;64.70;;;;;;6274025;22;20164;-74
2020/12/09 06:36:16;;;;;;;160.50;25.83;;;5.10;64.20;;;;;;6273951;22;20016;-74
2020/12/09 06:39:04;;;;;;;221.27;28.20;;;4.90;64.30;;;;;;6274341;22;20008;-74
2020/12/09 06:41:34;;;;;;;151.77;22.38;;;4.40;66.30;;;;;;6246298;22;20327;-73
2020/12/09 06:44:14;;;;;;;105.97;23.65;;;4.40;67.00;;;;;;6274097;22;20011;-75
2020/12/09 06:46:51;;;;;;;132.30;22.38;;;4.30;66.70;;;;;;6274203;22;20011;-75
2020/12/09 06:49:29;;;;;;;72.93;24.48;;;4.50;67.00;;;;;;6273833;22;20057;-73
2020/12/09 06:51:56;;;;;;;149.48;23.85;;;;;;;;;;6273277;22;20377;-74
2020/12/09 06:54:42;;;;;;;66.28;20.98;;;4.60;66.30;;;;;;6273857;22;20011;-74
2020/12/09 06:57:11;;;;;;;108.38;24.27;;;4.60;66.80;;;;;;6247291;22;20085;-73
2020/12/09 06:59:37;;;;;;;67.13;22.95;;;;;;;;;;6274069;22;20387;-73
2020/12/09 07:02:05;;;;;;;96.78;25.75;;;4.90;66.20;;;;;;6272418;22;20010;-75
2020/12/09 07:04:53;;;;;;;115.47;28.48;;;5.00;65.80;;;;;;6273350;22;20019;-74
2020/12/09 07:07:29;;;;;;;119.10;24.30;;;5.20;65.00;;;;;;6269423;22;20027;-74
2020/12/09 07:09:55;;;;;;;126.75;26.17;;;;;;;;;;6270839;22;20433;-74
2020/12/09 07:12:22;;;;;;;187.23;26.73;;;5.10;64.80;;;;;;6271058;22;20012;-74
2020/12/09 07:14:52;;;;;;;;;;;5.10;65.30;;;;;;6271798;22;20004;-73
2020/12/09 07:17:21;;;;;;;105.80;25.25;;;5.20;64.70;;;;;;6243219;22;19911;-73
2020/12/09 07:19:48;;;;;;;109.95;25.10;;;;;;;;;;6270912;22;20008;-72
2020/12/09 07:22:14;;;;;;;;;;;5.20;64.60;;;;;;6271881;22;20007;-73
2020/12/09 07:24:40;;;;;;;104.50;23.23;;;;;;;;;;6271692;22;19938;-74
2020/12/09 07:27:10;;;;;;;106.65;24.45;;;;;;;;;;6272760;22;20286;-73
2020/12/09 07:29:47;;;;;;;116.90;25.58;;;5.60;63.10;;;;;;6272849;22;20015;-73
2020/12/09 07:32:18;;;;;;;98.90;27.33;;;5.60;63.20;;;;;;6272622;22;20428;-72
2020/12/09 07:35:00;;;;;;;81.15;25.38;;;5.60;63.10;;;;;;6272792;22;20030;-72
2020/12/09 07:37:29;;;;;;;100.15;24.83;;;5.30;63.60;;;;;;6272504;22;20011;-72
2020/12/09 07:39:58;;;;;;;87.00;21.70;;;;;;;;;;6272592;22;20011;-74
2020/12/09 07:42:25;;;;;;;58.10;16.55;;;;;;;;;;6272446;22;20011;-73
2020/12/09 07:44:53;;;;;;;118.95;18.40;;;;;;;;;;6220169;22;20079;-75
2020/12/09 07:47:27;;;;;;;68.43;15.07;;;4.40;66.10;;;;;;6272596;22;20018;-71
2020/12/09 07:50:04;;;;;;;154.73;21.58;;;4.50;66.10;;;;;;6278943;22;20027;-74
2020/12/09 07:52:39;;;;;;;105.50;19.45;;;4.90;65.00;;;;;;6274003;22;20022;-72
2020/12/09 07:55:11;;;;;;;121.35;22.90;;;5.00;64.20;;;;;;6271986;22;20076;-72
2020/12/09 07:57:38;;;;;;;82.75;18.48;;;;;;;;;;6272080;22;20443;-73
2020/12/09 08:00:07;;;;;;;81.43;21.40;;;4.90;64.60;;;;;;6272330;22;20003;-74
2020/12/09 08:02:40;;;;;;;65.10;16.08;;;4.90;64.30;;;;;;6272291;22;20014;-73
2020/12/09 08:05:23;;;;;;;88.55;18.60;;;4.90;64.70;;;;;;6269976;22;20008;-73
2020/12/09 08:07:54;;;;;;;48.05;18.55;;;4.90;64.40;;;;;;6269961;22;20019;-74
2020/12/09 08:10:31;;;;;;;61.70;20.42;;;4.80;65.00;;;;;;6271135;22;20004;-71
2020/12/09 08:13:04;;;;;;;80.80;20.38;;;4.70;65.70;;;;;;6271862;22;20112;-73
2020/12/09 08:15:31;;;;;;;68.07;22.10;;;;;;;;;;6271907;22;20305;-73
2020/12/09 08:17:57;;;;;;;80.72;23.48;;;;;;;;;;6271476;22;20016;-72
2020/12/09 08:20:23;;;;;;;61.63;19.83;;;;;;;;;;6272648;22;20106;-73
2020/12/09 08:22:50;;;;;;;79.35;21.58;;;;;;;;;;6272468;22;20004;-73
2020/12/09 08:25:16;;;;;;;75.72;21.35;;;;;;;;;;6272243;22;20061;-73
2020/12/09 08:27:43;;;;;;;141.05;26.27;;;5.30;65.10;;;;;;6271947;22;20062;-72
2020/12/09 08:30:26;;;;;;;75.55;20.02;;;5.20;65.30;;;;;;6274451;22;20004;-73
2020/12/09 08:33:10;;;;;;;109.65;22.80;;;5.10;65.50;;;;;;6274133;22;20008;-73
2020/12/09 08:35:42;;;;;;;138.27;24.77;;;5.30;65.40;;;;;;6274677;22;20016;-73
2020/12/09 08:38:08;;;;;;;87.70;22.20;;;;;;;;;;6273830;22;20011;-74
2020/12/09 08:40:34;;;;;;;62.17;18.42;;;;;;;;;;6274543;22;20050;-73
2020/12/09 08:43:01;;;;;;;102.00;23.25;;;;;;;;;;6274332;22;20008;-74
2020/12/09 08:45:28;;;;;;;125.72;25.67;;;5.40;65.50;;;;;;6274684;22;20077;-73
2020/12/09 08:47:53;;;;;;;;;;;5.30;65.90;;;;;;6275460;22;20091;-73
2020/12/09 08:50:20;;;;;;;75.43;24.00;;;;;;;;;;6246974;22;20031;-72
2020/12/09 08:52:47;;;;;;;82.30;23.00;;;;;;;;;;6274551;22;20019;-73
2020/12/09 08:55:13;;;;;;;106.30;27.85;;;;;;;;;;6274318;22;20007;-71
2020/12/09 08:57:40;;;;;;;119.65;26.38;;;;;;;;;;6274802;22;20000;-72
2020/12/09 09:00:07;;;;;;;110.18;24.83;;;5.80;63.90;;;;;;6274196;22;20042;-71
2020/12/09 09:02:34;;;;;;;97.50;28.70;;;;;;;;;;6274217;22;20008;-73
2020/12/09 09:05:00;;;;;;;94.90;27.58;;;;;;;;;;6273928;22;20094;-72
2020/12/09 09:07:26;;;;;;;107.30;30.88;;;6.10;63.80;;;;;;6273632;22;20016;-70
2020/12/09 09:09:53;;;;;;;175.63;31.42;;;;;;;;;;6246354;22;20436;-73
2020/12/09 09:12:19;;;;;;;166.30;29.48;;;;;;;;;;6274262;22;20518;-73
2020/12/09 09:14:46;;;;;;;115.30;28.73;;;;;;;;;;6274779;22;20114;-73
2020/12/09 09:17:12;;;;;;;104.57;28.27;;;;;;;;;;6273963;22;20011;-71
2020/12/09 09:19:38;;;;;;;121.88;28.58;;;;;;;;;;6274676;22;20011;-72
2020/12/09 09:22:05;;;;;;;137.20;28.60;;;;;;;;;;6275368;22;20011;-72
2020/12/09 09:24:31;;;;;;;99.10;29.77;;;;;;;;;;6274985;22;20317;-72
2020/12/09 09:26:57;;;;;;;113.80;31.88;;;;;;;;;;6273714;22;20444;-72
2020/12/09 09:29:24;;;;;;;115.35;31.98;;;;;;;;;;6274226;22;20294;-73
2020/12/09 09:31:50;;;;;;;104.32;30.83;;;;;;;;;;6246448;22;20396;-71
2020/12/09 09:34:16;;;;;;;110.05;31.08;;;;;;;;;;6273372;22;20015;-74
2020/12/09 09:36:44;;;;;;;109.03;32.88;;;;;;;;;;6273521;22;20083;-74
2020/12/09 09:39:10;;;;;;;100.10;30.42;;;;;;;;;;6274066;22;20003;-74
2020/12/09 09:41:38;;;;;;;83.45;29.35;;;;;;;;;;6274012;22;20007;-73
2020/12/09 09:44:05;;;;;;;77.47;25.02;;;;;;;;;;6246741;22;20065;-75
2020/12/09 09:46:31;;;;;;;96.40;29.13;;;;;;;;;;6274440;22;20012;-73
2020/12/09 09:48:58;;;;;;;96.82;27.98;;;;;;;;;;6246960;22;20030;-76
2020/12/09 09:51:24;;;;;;;104.55;30.73;;;;;;;;;;6273583;22;20015;-77
2020/12/09 09:53:50;;;;;;;75.85;25.75;;;;;;;;;;6273556;22;20094;-75
2020/12/09 09:56:16;;;;;;;76.45;27.73;;;;;;;;;;6274006;22;20090;-75
2020/12/09 09:58:43;;;;;;;79.25;25.35;;;;;;;;;;6246664;22;20003;-77
2020/12/09 10:01:09;;;;;;;72.30;24.45;;;;;;;;;;6273774;22;20007;-77
2020/12/09 10:03:35;;;;;;;83.43;25.83;;;;;;;;;;6274197;22;20024;-76
2020/12/09 10:06:02;;;;;;;83.05;27.65;;;;;;;;;;6273133;22;20019;-76
2020/12/09 10:08:29;;;;;;;74.88;23.20;;;;;;;;;;6274770;22;20082;-74
2020/12/09 10:10:56;;;;;;;82.70;25.67;;;;;;;;;;6273821;22;20038;-75
2020/12/09 10:13:22;;;;;;;84.03;25.63;;;;;;;;;;6273448;22;20016;-76
2020/12/09 10:15:48;;;;;;;89.40;26.63;;;;;;;;;;6246254;22;20043;-74
2020/12/09 10:18:15;;;;;;;76.45;24.80;;;;;;;;;;6273409;22;20336;-76
2020/12/09 10:20:41;;;;;;;82.95;26.05;;;;;;;;;;6273963;22;20015;-74
2020/12/09 10:23:07;;;;;;;67.30;23.67;;;;;;;;;;6273167;22;20084;-76
2020/12/09 10:25:33;;;;;;;77.85;26.33;;;;;;;;;;6273199;22;20008;-75
2020/12/09 10:28:00;;;;;;;72.47;25.35;;;;;;;;;;6272598;22;20043;-74
2020/12/09 10:30:26;;;;;;;81.68;24.08;;;;;;;;;;6273041;22;20428;-74
2020/12/09 10:32:52;;;;;;;81.95;26.90;;;;;;;;;;6272609;22;20506;-74
2020/12/09 10:35:19;;;;;;;71.20;24.17;;;;;;;;;;6272441;22;20023;-72
2020/12/09 10:37:45;;;;;;;76.20;25.40;;;;;;;;;;6271948;22;20103;-76
2020/12/09 10:40:11;;;;;;;70.05;24.42;;;;;;;;;;6272369;22;20030;-72
2020/12/09 10:42:37;;;;;;;79.18;25.50;;;;;;;;;;6245049;22;20080;-77
2020/12/09 10:45:04;;;;;;;59.60;23.10;;;;;;;;;;6272206;22;20133;-74
2020/12/09 10:47:30;;;;;;;64.15;22.75;;;;;;;;;;6272620;22;20432;-74
2020/12/09 10:49:57;;;;;;;64.18;20.42;;;6.40;61.60;;;;;;6273514;22;20015;-72
2020/12/09 10:52:23;;;;;;;70.47;24.70;;;;;;;;;;6272904;22;20018;-73
2020/12/09 10:55:08;;;;;;;68.60;20.90;;;6.40;62.10;;;;;;6272841;22;20016;-74
2020/12/09 10:57:34;;;;;;;63.95;24.13;;;;;;;;;;6274092;22;20091;-73
2020/12/09 11:00:00;;;;;;;59.22;21.42;;;;;;;;;;6246313;22;20007;-72
2020/12/09 11:02:26;;;;;;;65.25;23.63;;;;;;;;;;6246307;22;20110;-75
2020/12/09 11:04:53;;;;;;;54.08;21.13;;;;;;;;;;6272852;22;20091;-75
2020/12/09 11:07:19;;;;;;;66.15;23.00;;;;;;;;;;6273409;22;20015;-74
2020/12/09 11:09:46;;;;;;;62.25;23.17;;;;;;;;;;6273063;22;20019;-74
2020/12/09 11:12:15;;;;;;;61.05;22.50;;;;;;;;;;6247590;22;20163;-75
2020/12/09 11:14:41;;;;;;;64.43;22.55;;;;;;;;;;6274189;22;20083;-72
2020/12/09 11:17:07;;;;;;;59.67;19.85;;;;;;;;;;6273538;22;20046;-73
2020/12/09 11:19:34;;;;;;;63.67;21.85;;;;;;;;;;6273067;22;20364;-74
2020/12/09 11:22:00;;;;;;;66.78;22.80;;;;;;;;;;6273088;22;20083;-74
2020/12/09 11:24:26;;;;;;;55.20;22.00;;;;;;;;;;6273623;22;20087;-73
2020/12/09 11:26:53;;;;;;;55.42;20.80;;;;;;;;;;6273130;22;20118;-75
2020/12/09 11:29:19;;;;;;;61.30;22.95;;;;;;;;;;6270198;22;20104;-76
2020/12/09 11:31:45;;;;;;;56.38;22.50;;;;;;;;;;6270315;22;20008;-75
2020/12/09 11:34:12;;;;;;;62.38;24.05;;;;;;;;;;6243428;22;20011;-73
2020/12/09 11:36:38;;;;;;;67.85;22.52;;;;;;;;;;6270307;22;20023;-73
2020/12/09 11:39:04;;;;;;;60.95;20.05;;;;;;;;;;6270611;22;20016;-72
2020/12/09 11:41:32;;;;;;;52.33;21.75;;;6.70;60.60;;;;;;6270034;22;20428;-72
2020/12/09 11:43:59;;;;;;;54.92;22.35;;;;;;;;;;6270605;22;20044;-75
2020/12/09 11:46:26;;;;;;;57.35;22.42;;;6.80;60.60;;;;;;6243252;22;20008;-74
2020/12/09 11:48:52;;;;;;;52.80;20.13;;;6.70;60.80;;;;;;6270047;22;20695;-73
2020/12/09 11:51:19;;;;;;;56.13;21.67;;;;;;;;;;6270689;22;20015;-78
2020/12/09 11:53:45;;;;;;;55.30;22.60;;;;;;;;;;6267003;22;20039;-76
2020/12/09 11:56:12;;;;;;;71.40;24.35;;;;;;;;;;6272032;22;20011;-74
2020/12/09 11:58:39;;;;;;;80.47;27.83;;;;;;;;;;6273441;22;20447;-76
2020/12/09 12:01:08;;;;;;;87.82;31.58;;;6.40;61.80;;;;;;6273326;22;20087;-75
2020/12/09 12:03:34;;;;;;;96.95;30.83;;;6.20;62.60;;;;;;6272842;22;20058;-74
2020/12/09 12:06:01;;;;;;;95.43;33.97;;;;;;;;;;6272308;22;20046;-75
2020/12/09 12:08:27;;;;;;;106.93;35.60;;;;;;;;;;6272549;22;20020;-75
2020/12/09 12:10:53;;;;;;;79.68;27.85;;;;;;;;;;6272830;22;20437;-76
2020/12/09 12:13:20;;;;;;;79.57;26.65;;;;;;;;;;6274273;22;20355;-73
2020/12/09 12:15:46;;;;;;;75.45;28.10;;;;;;;;;;6247808;22;20011;-74
2020/12/09 12:18:12;;;;;;;83.00;27.67;;;;;;;;;;6275260;22;20019;-76
2020/12/09 12:20:38;;;;;;;75.15;24.65;;;;;;;;;;6248086;22;20007;-73
2020/12/09 12:23:05;;;;;;;66.18;24.13;;;;;;;;;;6275275;22;20015;-74
2020/12/09 12:25:31;;;;;;;75.43;24.65;;;;;;;;;;6273881;22;20428;-73
2020/12/09 12:27:57;;;;;;;67.03;24.30;;;;;;;;;;6247679;22;20096;-72
2020/12/09 12:30:23;;;;;;;71.00;25.58;;;;;;;;;;6275720;22;20103;-74
2020/12/09 12:32:50;;;;;;;58.75;20.77;;;;;;;;;;6275427;22;20027;-73
2020/12/09 12:35:16;;;;;;;72.28;24.10;;;;;;;;;;6247212;22;20081;-75
2020/12/09 12:37:42;;;;;;;59.45;23.92;;;;;;;;;;6274971;22;20034;-75
2020/12/09 12:40:08;;;;;;;60.47;24.92;;;;;;;;;;6273882;22;20051;-76
2020/12/09 12:42:35;;;;;;;58.92;22.17;;;;;;;;;;6247121;22;20011;-76
2020/12/09 12:45:01;;;;;;;62.88;23.08;;;;;;;;;;6274295;22;20011;-71
2020/12/09 12:47:27;;;;;;;57.42;23.02;;;;;;;;;;6274829;22;20023;-76
2020/12/09 12:49:53;;;;;;;56.38;21.55;;;;;;;;;;6275024;22;20083;-76
2020/12/09 12:52:19;;;;;;;66.95;24.65;;;;;;;;;;6274354;22;20012;-75
2020/12/09 12:54:46;;;;;;;64.70;23.25;;;;;;;;;;6274123;22;20409;-76
2020/12/09 12:57:12;;;;;;;63.55;23.50;;;;;;;;;;6247188;22;20432;-74
2020/12/09 12:59:38;;;;;;;70.18;26.35;;;;;;;;;;6274772;22;20045;-75
2020/12/09 13:02:05;;;;;;;70.75;25.65;;;;;;;;;;6274539;22;20011;-75
2020/12/09 13:04:31;;;;;;;103.72;35.28;;;;;;;;;;6273586;22;20340;-76
2020/12/09 13:06:57;;;;;;;138.50;43.55;;;;;;;;;;6273719;22;20022;-75
2020/12/09 13:09:23;;;;;;;130.93;44.97;;;;;;;;;;6274441;22;20183;-75
2020/12/09 13:11:50;;;;;;;151.48;51.08;;;;;;;;;;6247610;22;20093;-74
2020/12/09 13:14:17;;;;;;;102.90;36.38;;;;;;;;;;6274798;22;20015;-74
2020/12/09 13:16:49;;;;;;;77.45;29.02;;;7.10;60.60;;;;;;6247686;22;20088;-76
2020/12/09 13:19:16;;;;;;;70.70;25.95;;;7.10;60.30;;;;;;6274825;22;20011;-76
2020/12/09 13:21:42;;;;;;;65.93;22.67;;;;;;;;;;6274560;22;20015;-76
2020/12/09 13:24:09;;;;;;;66.22;25.30;;;;;;;;;;6274330;22;20008;-77
2020/12/09 13:26:37;;;;;;;70.82;25.25;;;;;;;;;;6273826;22;20186;-76
2020/12/09 13:29:04;;;;;;;69.75;24.27;;;;;;;;;;6273955;22;20436;-76
2020/12/09 13:31:33;;;;;;;62.83;24.30;;;;;;;;;;6247322;22;20003;-77
2020/12/09 13:34:00;;;;;;;55.92;21.60;;;;;;;;;;6274348;22;20061;-80
2020/12/09 13:36:26;;;;;;;47.45;21.17;;;;;;;;;;6274191;22;20023;-77
2020/12/09 13:38:53;;;;;;;62.22;23.33;;;;;;;;;;6274909;22;20087;-78
2020/12/09 13:41:19;;;;;;;;;;;7.10;61.20;;;;;;6274809;22;20003;-76
2020/12/09 13:43:45;;;;;;;49.35;21.30;;;;;;;;;;6275683;22;19952;-76
2020/12/09 13:46:13;;;;;;;64.43;24.02;;;;;;;;;;6274569;22;20085;-75
2020/12/09 13:48:39;;;;;;;69.50;26.90;;;;;;;;;;6221630;22;20000;-77